createdAt,value
2023-04-21T06:38:25.100Z,97643.3
2023-04-21T06:43:56.776Z,97646.5
2023-04-21T06:49:51.868Z,97645.2
2023-04-21T06:55:28.049Z,97634.8
2023-04-21T07:01:03.928Z,97626.7
2023-04-21T07:06:40.893Z,97622.1
2023-04-21T07:12:16.371Z,97612.6
2023-04-21T07:17:55.219Z,97616
2023-04-21T07:23:30.969Z,97610.7
2023-04-21T07:29:06.360Z,97602.3
2023-04-21T07:34:42.715Z,97600.9
2023-04-21T07:40:18.197Z,97596.5
2023-04-21T07:45:54.710Z,97588.5
2023-04-21T07:51:32.288Z,97587.7
2023-04-21T07:57:07.750Z,97584.8
2023-04-21T08:02:43.806Z,97577.6
2023-04-21T08:08:20.778Z,97571.8
2023-04-21T08:13:57.500Z,97572.9
2023-04-21T08:19:33.541Z,97576.8
2023-04-21T08:25:10.634Z,97573.6
2023-04-21T08:30:47.313Z,97565.4
2023-04-21T08:36:31.121Z,97562.6
2023-04-21T08:42:30.784Z,97567.5
2023-04-21T08:48:03.992Z,97578.6
2023-04-21T08:53:40.153Z,97579.8
2023-04-21T08:59:15.974Z,97571.4
2023-04-21T09:04:54.926Z,97577
2023-04-21T09:10:34.437Z,97571.7
2023-04-21T09:16:10.508Z,97562.7
2023-04-21T09:21:49.638Z,97559.7
2023-04-21T09:27:25.139Z,97560.8
2023-04-21T09:33:01.217Z,97552.3
2023-04-21T09:39:46.005Z,97547.9
2023-04-21T09:45:43.350Z,97545.5
2023-04-21T09:52:17.412Z,97543.3
2023-04-21T09:57:58.373Z,97540.8
2023-04-21T10:03:34.763Z,97535.5
2023-04-21T10:09:11.418Z,97529.5
2023-04-21T10:14:47.266Z,97532.7
2023-04-21T10:20:23.681Z,97522.5
2023-04-21T10:25:59.087Z,97518.4
2023-04-21T10:31:35.361Z,97513.2
2023-04-21T10:37:11.708Z,97503.1
2023-04-21T10:42:47.678Z,97500
2023-04-21T10:48:23.860Z,97495.6
2023-04-21T10:54:00.853Z,97492.2
2023-04-21T10:59:37.166Z,97489.5
2023-04-21T11:05:13.099Z,97480.6
2023-04-21T11:10:49.445Z,97471.4
2023-04-21T11:16:25.848Z,97466.2
2023-04-21T11:22:04.264Z,97459
2023-04-21T11:27:41.883Z,97456
2023-04-21T11:33:20.240Z,97445.5
2023-04-21T11:38:55.565Z,97446
2023-04-21T11:44:31.051Z,97438.2
2023-04-21T11:50:06.400Z,97432.9
2023-04-21T11:55:42.068Z,97426.2
2023-04-21T12:01:17.889Z,97417.7
2023-04-21T12:06:53.624Z,97409.7
2023-04-21T12:12:28.987Z,97402.6
2023-04-21T12:18:07.230Z,97400
2023-04-21T12:24:03.259Z,97391
2023-04-21T12:29:38.851Z,97390.1
2023-04-21T12:35:21.106Z,97379.3
2023-04-21T12:40:56.551Z,97377.4
2023-04-21T12:46:35.374Z,97375
2023-04-21T12:52:26.959Z,97366.5
2023-04-21T12:58:03.516Z,97363.9
2023-04-21T13:03:42.806Z,97361.4
2023-04-21T13:09:20.009Z,97355.3
2023-04-21T13:14:56.157Z,97353.4
2023-04-21T13:20:38.013Z,97345.6
2023-04-21T13:26:14.413Z,97334.5
2023-04-21T13:31:52.556Z,97326.8
2023-04-21T13:37:29.237Z,97318.9
2023-04-21T13:43:34.896Z,97307.7
2023-04-21T13:49:09.148Z,97303.3
2023-04-21T13:54:51.357Z,97298.6
2023-04-21T14:00:43.747Z,97294.3
2023-04-21T14:06:22.262Z,97287
2023-04-21T14:11:58.019Z,97271
2023-04-21T14:17:55.995Z,97274.9
2023-04-21T14:23:33.386Z,97254.3
2023-04-21T14:29:09.614Z,97253.8
2023-04-21T14:35:04.186Z,97239.7
2023-04-21T14:41:02.917Z,97237.8
2023-04-21T14:46:38.652Z,97226.9
2023-04-21T14:52:14.743Z,97213.8
2023-04-21T14:57:50.813Z,97196
2023-04-21T15:03:26.607Z,97183.8
2023-04-21T15:09:03.294Z,97189.1
2023-04-21T15:14:53.548Z,97191.2
2023-04-21T15:21:21.055Z,97167
2023-04-21T15:27:00.422Z,97160.9
2023-04-21T15:32:39.477Z,97151.1
2023-04-21T15:38:18.004Z,97152
2023-04-21T15:43:56.859Z,97140.8
2023-04-21T15:49:33.268Z,97132.1
2023-04-21T15:55:13.974Z,97134.8
2023-04-21T16:00:49.659Z,97137
2023-04-21T16:06:25.874Z,97138.2
2023-04-21T16:12:02.542Z,97134.1
2023-04-21T16:17:46.317Z,97130.8
2023-04-21T16:23:29.415Z,97114.5
2023-04-21T16:29:22.731Z,97112.9
2023-04-21T16:35:00.696Z,97106.6
2023-04-21T16:41:35.265Z,97098.9
2023-04-21T16:47:09.826Z,97092.9
2023-04-21T16:52:46.532Z,97084.4
2023-04-21T16:58:30.266Z,97087.6
2023-04-21T17:04:07.769Z,97084.6
2023-04-21T17:09:44.929Z,97090.4
2023-04-21T17:15:20.228Z,97103
2023-04-21T17:21:14.159Z,97103.5
2023-04-21T17:26:49.564Z,97126.6
2023-04-21T17:32:35.155Z,97085.7
2023-04-21T17:44:19.687Z,97101.2
2023-04-21T17:50:02.558Z,97076.5
2023-04-21T17:55:41.370Z,97073.8
2023-04-21T18:02:00.180Z,97077.2
2023-04-21T18:07:39.310Z,97072.5
2023-04-21T18:13:15.387Z,97070
2023-04-21T18:19:10.741Z,97060
2023-04-21T18:24:46.188Z,97058.3
2023-04-21T18:30:23.528Z,97067.2
2023-04-21T18:36:16.167Z,97064.2
2023-04-21T18:41:52.970Z,97067.3
2023-04-21T18:47:31.518Z,97059.4
2023-04-21T18:53:07.590Z,97063.4
2023-04-21T18:59:00.749Z,97059.5
2023-04-21T19:04:41.352Z,97060.1
2023-04-21T19:10:33.659Z,97059.6
2023-04-21T19:16:38.854Z,97057.5
2023-04-21T19:22:14.590Z,97071.9
2023-04-21T19:27:50.662Z,97091.3
2023-04-21T19:33:34.482Z,97117.7
2023-04-21T19:39:13.143Z,97159.3
2023-04-21T19:44:54.976Z,97177.6
2023-04-21T19:50:35.326Z,97171.1
2023-04-21T19:56:10.998Z,97208.1
2023-04-21T20:01:47.266Z,97212.8
2023-04-21T20:07:23.582Z,97226
2023-04-21T20:13:02.116Z,97225.2
2023-04-21T20:19:08.725Z,97222.9
2023-04-21T20:24:52.144Z,97226.3
2023-04-21T20:30:33.037Z,97234.5
2023-04-21T20:36:09.796Z,97240.2
2023-04-21T20:42:35.229Z,97242.7
2023-04-21T20:48:08.774Z,97234.3
2023-04-21T20:53:44.226Z,97238.6
2023-04-21T20:59:19.350Z,97243.2
